createdAt,value
2018-08-09T00:02:05.709Z,5.20
2018-08-09T00:04:35.574Z,4.80
2018-08-09T00:07:05.877Z,5.20
2018-08-09T00:09:35.834Z,5.40
2018-08-09T00:12:05.844Z,5.30
2018-08-09T00:14:35.862Z,4.37
2018-08-09T00:17:06.186Z,5.23
2018-08-09T00:19:35.981Z,5.40
2018-08-09T00:22:06.013Z,5.63
2018-08-09T00:24:35.998Z,5.53
2018-08-09T00:27:06.190Z,5.50
2018-08-09T00:29:36.087Z,5.40
2018-08-09T00:32:05.973Z,5.30
2018-08-09T00:34:35.962Z,5.27
2018-08-09T00:37:06.382Z,5.00
2018-08-09T00:39:36.515Z,5.60
2018-08-09T00:42:06.402Z,5.30
2018-08-09T00:44:36.291Z,5.37
2018-08-09T00:47:06.712Z,4.53
2018-08-09T00:49:36.718Z,4.40
2018-08-09T00:52:06.758Z,5.57
2018-08-09T00:54:36.895Z,5.00
2018-08-09T00:57:06.866Z,4.60
2018-08-09T00:59:36.889Z,4.90
2018-08-09T01:02:11.980Z,4.80
2018-08-09T01:04:42.197Z,4.83
2018-08-09T01:07:12.103Z,4.67
2018-08-09T01:09:42.528Z,5.43
2018-08-09T01:12:12.550Z,4.10
2018-08-09T01:14:42.845Z,4.23
2018-08-09T01:17:13.169Z,4.70
2018-08-09T01:19:43.202Z,4.90
2018-08-09T01:22:13.445Z,4.80
2018-08-09T01:24:43.484Z,4.17
2018-08-09T01:27:13.692Z,5.20
2018-08-09T01:29:43.617Z,4.47
2018-08-09T01:32:13.564Z,4.17
2018-08-09T01:34:43.518Z,4.40
2018-08-09T01:37:13.911Z,4.70
2018-08-09T01:39:43.780Z,4.80
2018-08-09T01:42:30.121Z,4.83
2018-08-09T01:45:00.116Z,5.17
2018-08-09T01:47:30.210Z,4.87
2018-08-09T01:50:00.395Z,5.33
2018-08-09T01:52:31.226Z,5.17
2018-08-09T01:55:01.444Z,4.67
2018-08-09T01:57:32.379Z,4.60
2018-08-09T02:00:02.718Z,5.57
2018-08-09T02:02:32.743Z,5.50
2018-08-09T02:05:02.778Z,5.27
2018-08-09T02:07:33.078Z,4.83
2018-08-09T02:10:03.112Z,4.17
2018-08-09T02:12:33.474Z,4.30
2018-08-09T02:15:03.342Z,4.87
2018-08-09T02:17:33.278Z,5.53
2018-08-09T02:20:03.252Z,5.03
2018-08-09T02:22:33.434Z,5.30
2018-08-09T02:25:03.375Z,5.33
2018-08-09T02:27:33.288Z,5.30
2018-08-09T02:30:03.115Z,5.07
2018-08-09T02:32:33.270Z,5.30
2018-08-09T02:35:03.538Z,4.20
2018-08-09T02:37:33.553Z,5.30
2018-08-09T02:40:03.466Z,6.10
2018-08-09T02:42:33.378Z,5.40
2018-08-09T02:45:03.423Z,5.50
2018-08-09T02:47:33.444Z,6.10
2018-08-09T02:50:03.306Z,5.70
2018-08-09T02:52:33.596Z,5.33
2018-08-09T02:55:03.811Z,6.27
2018-08-09T02:57:33.778Z,5.10
2018-08-09T03:00:03.683Z,5.63
2018-08-09T03:02:33.896Z,4.40
2018-08-09T03:05:03.800Z,5.70
2018-08-09T03:07:33.787Z,5.33
2018-08-09T03:10:03.803Z,4.90
2018-08-09T03:12:34.066Z,4.33
2018-08-09T03:15:03.959Z,5.20
2018-08-09T03:17:33.855Z,5.80
2018-08-09T03:20:03.954Z,5.10
2018-08-09T03:22:33.819Z,5.70
2018-08-09T03:25:03.782Z,5.67
2018-08-09T03:27:34.018Z,5.00
2018-08-09T03:30:04.063Z,5.40
2018-08-09T03:32:34.090Z,5.00
2018-08-09T03:35:04.062Z,5.47
2018-08-09T03:37:34.014Z,4.97
2018-08-09T03:40:03.974Z,5.33
2018-08-09T03:42:34.028Z,5.03
2018-08-09T03:45:04.001Z,5.33
2018-08-09T03:47:33.965Z,6.57
2018-08-09T03:50:04.673Z,5.40
2018-08-09T03:52:34.553Z,5.10
2018-08-09T03:55:05.176Z,5.23
2018-08-09T03:57:35.130Z,5.93
2018-08-09T04:00:07.197Z,5.73
2018-08-09T04:02:37.481Z,5.53
2018-08-09T04:05:08.354Z,6.00
2018-08-09T04:07:38.110Z,4.93
2018-08-09T04:10:08.735Z,5.90
2018-08-09T04:12:38.762Z,5.57
2018-08-09T04:15:10.489Z,6.20
2018-08-09T04:17:40.478Z,6.57
2018-08-09T04:20:10.539Z,5.80
2018-08-09T04:22:40.351Z,5.57
2018-08-09T04:25:11.117Z,5.73
2018-08-09T04:27:41.149Z,6.50
2018-08-09T04:30:11.091Z,6.87
2018-08-09T04:32:41.089Z,7.00
2018-08-09T04:35:11.291Z,6.20
2018-08-09T04:37:41.191Z,5.57
2018-08-09T04:40:11.389Z,5.97
2018-08-09T04:42:41.290Z,6.50
2018-08-09T04:45:11.978Z,6.10
2018-08-09T04:47:41.957Z,6.67
2018-08-09T04:50:12.867Z,6.87
2018-08-09T04:52:42.962Z,5.97
2018-08-09T04:55:13.284Z,7.33
2018-08-09T04:57:43.318Z,7.47
2018-08-09T05:00:13.203Z,7.60
2018-08-09T05:02:43.384Z,6.97
2018-08-09T05:05:13.395Z,6.97
2018-08-09T05:07:43.618Z,6.03
2018-08-09T05:10:13.594Z,7.70
2018-08-09T05:12:44.062Z,8.53
2018-08-09T05:15:14.754Z,7.60
2018-08-09T05:17:45.258Z,7.70
2018-08-09T05:20:15.875Z,7.83
2018-08-09T05:22:46.024Z,8.53
2018-08-09T05:25:16.106Z,7.33
2018-08-09T05:27:46.109Z,7.13
2018-08-09T05:30:18.148Z,8.00
2018-08-09T05:32:48.188Z,8.00
2018-08-09T05:35:26.633Z,7.70
2018-08-09T05:37:57.381Z,7.40
2018-08-09T05:40:27.458Z,7.07
2018-08-09T05:42:57.606Z,7.63
2018-08-09T05:45:27.550Z,7.70
2018-08-09T05:48:01.246Z,7.70
2018-08-09T05:50:31.283Z,8.03
2018-08-09T05:53:01.405Z,7.57
2018-08-09T05:55:33.384Z,7.80
2018-08-09T05:58:03.816Z,7.47
2018-08-09T06:00:33.695Z,7.80
2018-08-09T06:03:03.512Z,7.50
2018-08-09T06:05:33.915Z,8.10
2018-08-09T06:08:03.997Z,8.37
2018-08-09T06:10:33.986Z,6.53
2018-08-09T06:13:04.130Z,6.37
2018-08-09T06:15:34.202Z,5.67
2018-08-09T06:18:04.433Z,6.00
2018-08-09T06:20:34.490Z,5.30
2018-08-09T06:23:04.385Z,5.40
2018-08-09T06:25:34.517Z,4.80
2018-08-09T06:28:04.793Z,5.37
2018-08-09T06:30:37.194Z,4.87
2018-08-09T06:33:07.334Z,4.80
2018-08-09T06:35:37.358Z,5.13
2018-08-09T06:38:07.685Z,4.70
2018-08-09T06:40:39.635Z,5.03
2018-08-09T06:43:09.774Z,4.50
2018-08-09T06:46:02.747Z,3.67
2018-08-09T06:48:32.860Z,4.30
2018-08-09T06:51:03.775Z,4.60
2018-08-09T06:53:34.019Z,3.97
2018-08-09T06:56:04.104Z,5.07
2018-08-09T06:58:34.326Z,4.20
2018-08-09T07:01:04.480Z,3.87
2018-08-09T07:03:34.732Z,5.30
2018-08-09T07:06:04.608Z,4.47
2018-08-09T07:11:36.185Z,5.00
2018-08-09T07:28:08.491Z,5.60
2018-08-09T07:30:38.522Z,4.90
2018-08-09T07:33:08.550Z,4.83
2018-08-09T07:36:01.668Z,5.33
2018-08-09T07:38:31.546Z,5.10
2018-08-09T07:41:01.651Z,4.67
2018-08-09T07:43:31.679Z,4.70
2018-08-09T07:46:01.534Z,4.57
2018-08-09T07:49:02.916Z,4.80
2018-08-09T07:54:40.622Z,5.37
2018-08-09T07:57:10.673Z,5.00
2018-08-09T07:59:40.644Z,5.55
2018-08-09T08:02:10.480Z,6.43
2018-08-09T08:04:40.403Z,5.83
2018-08-09T08:07:15.595Z,5.43
2018-08-09T08:09:46.420Z,4.47
2018-08-09T08:12:18.316Z,4.50
2018-08-09T08:14:48.331Z,5.43
2018-08-09T08:17:18.400Z,5.57
2018-08-09T08:19:48.274Z,6.50
2018-08-09T08:22:18.099Z,6.20
2018-08-09T08:24:48.954Z,5.50
2018-08-09T08:27:18.848Z,7.40
2018-08-09T08:29:48.579Z,8.60
2018-08-09T08:32:18.542Z,8.50
2018-08-09T08:34:48.244Z,8.33
2018-08-09T08:37:18.185Z,9.60
2018-08-09T08:39:48.130Z,9.37
2018-08-09T08:42:18.059Z,11.60
2018-08-09T08:44:47.851Z,10.43
2018-08-09T08:47:18.292Z,11.13
2018-08-09T08:49:48.130Z,10.60
2018-08-09T08:52:17.991Z,10.70
2018-08-09T08:54:47.912Z,10.60
2018-08-09T08:57:17.698Z,10.57
2018-08-09T08:59:47.573Z,10.53
2018-08-09T09:02:18.106Z,10.27
2018-08-09T09:04:48.905Z,11.53
2018-08-09T09:07:19.242Z,10.00
2018-08-09T09:09:49.021Z,9.40
2018-08-09T09:12:18.874Z,10.37
2018-08-09T09:14:48.818Z,9.50
2018-08-09T09:17:18.571Z,9.43
2018-08-09T09:19:49.480Z,9.90
2018-08-09T09:22:19.686Z,9.73
2018-08-09T09:24:49.497Z,9.10
2018-08-09T09:27:19.331Z,10.03
2018-08-09T09:29:49.172Z,10.20
2018-08-09T09:32:19.190Z,9.10
2018-08-09T09:34:49.087Z,9.20
2018-08-09T09:37:19.555Z,8.90
2018-08-09T09:39:49.478Z,9.30
2018-08-09T10:06:26.929Z,9.53
2018-08-09T10:08:56.718Z,9.10
2018-08-09T10:11:27.847Z,10.00
2018-08-09T10:13:57.704Z,9.13
2018-08-09T10:16:30.172Z,8.53
2018-08-09T10:18:59.930Z,8.47
2018-08-09T10:21:30.671Z,8.60
2018-08-09T10:24:01.031Z,9.23
2018-08-09T10:26:30.854Z,8.67
2018-08-09T10:29:00.612Z,9.00
2018-08-09T10:31:31.208Z,8.40
2018-08-09T10:34:01.655Z,8.17
2018-08-09T10:36:32.249Z,10.00
2018-08-09T10:39:03.187Z,8.50
2018-08-09T10:41:33.109Z,8.70
2018-08-09T10:44:02.863Z,10.23
2018-08-09T10:46:33.140Z,8.43
2018-08-09T10:49:02.995Z,10.80
2018-08-09T10:51:32.728Z,9.70
2018-08-09T10:54:03.355Z,10.80
2018-08-09T10:56:33.192Z,8.70
2018-08-09T10:59:04.662Z,10.10
2018-08-09T11:01:34.840Z,9.10
2018-08-09T11:04:04.686Z,9.40
2018-08-09T11:06:34.817Z,9.20
2018-08-09T11:09:07.293Z,9.60
2018-08-09T11:11:37.226Z,8.97
2018-08-09T11:14:07.942Z,9.13
2018-08-09T11:16:37.625Z,9.37
2018-08-09T11:19:07.623Z,9.50
2018-08-09T11:21:37.762Z,9.70
2018-08-09T11:24:08.247Z,9.00
2018-08-09T11:26:38.218Z,9.43
2018-08-09T11:29:08.083Z,9.53
2018-08-09T11:31:37.734Z,9.50
2018-08-09T11:34:11.007Z,10.37
2018-08-09T11:36:40.727Z,9.67
2018-08-09T11:39:12.500Z,10.27
2018-08-09T11:41:42.891Z,8.90
2018-08-09T11:44:12.963Z,10.10
2018-08-09T11:46:42.815Z,11.20
2018-08-09T11:49:12.682Z,9.60
2018-08-09T11:51:42.602Z,9.10
2018-08-09T11:54:12.593Z,9.93
2018-08-09T11:56:42.576Z,9.77
2018-08-09T11:59:12.272Z,9.20
2018-08-09T12:01:44.094Z,10.30
2018-08-09T12:07:20.217Z,10.97
2018-08-09T12:09:50.584Z,11.37
2018-08-09T12:12:20.939Z,10.60
2018-08-09T12:14:51.951Z,9.10
2018-08-09T12:17:23.551Z,9.83
2018-08-09T12:19:53.410Z,8.47
2018-08-09T12:22:23.154Z,10.37
2018-08-09T12:24:53.120Z,10.00
2018-08-09T12:27:23.056Z,9.87
2018-08-09T12:29:52.881Z,9.40
2018-08-09T12:35:21.833Z,9.93
2018-08-09T12:37:51.859Z,10.30
2018-08-09T12:40:31.614Z,10.13
2018-08-09T12:43:02.652Z,11.00
2018-08-09T12:45:32.557Z,10.53
2018-08-09T12:48:02.307Z,9.67
2018-08-09T12:50:32.308Z,12.13
2018-08-09T12:53:03.034Z,11.30
2018-08-09T12:55:33.055Z,10.77
2018-08-09T12:58:02.975Z,8.33
2018-08-09T13:00:35.582Z,8.20
2018-08-09T13:03:05.599Z,7.60
2018-08-09T13:05:41.067Z,7.83
2018-08-09T13:08:14.972Z,7.90
2018-08-09T13:10:48.529Z,8.40
2018-08-09T13:13:21.471Z,8.30
2018-08-09T13:15:51.566Z,8.50
2018-08-09T13:18:23.136Z,6.93
2018-08-09T13:20:54.171Z,8.50
2018-08-09T13:23:27.767Z,8.27
2018-08-09T13:26:01.019Z,7.80
2018-08-09T13:28:31.338Z,7.93
2018-08-09T13:31:02.417Z,8.33
2018-08-09T13:33:32.991Z,8.60
2018-08-09T13:36:03.240Z,9.20
2018-08-09T13:38:33.321Z,7.70
2018-08-09T13:41:03.644Z,8.60
2018-08-09T13:43:33.746Z,7.17
2018-08-09T13:46:03.859Z,8.40
2018-08-09T13:48:34.155Z,7.63
2018-08-09T13:51:04.788Z,7.80
2018-08-09T13:53:34.982Z,8.60
2018-08-09T13:56:17.300Z,6.93
2018-08-09T13:58:47.322Z,7.40
2018-08-09T14:01:17.990Z,6.80
2018-08-09T14:03:49.248Z,8.13
2018-08-09T14:06:19.388Z,7.80
2018-08-09T14:08:49.602Z,7.60
2018-08-09T14:11:20.411Z,8.17
2018-08-09T14:13:50.517Z,7.80
2018-08-09T14:16:20.594Z,7.00
2018-08-09T14:18:54.591Z,7.53
2018-08-09T14:21:35.231Z,7.20
2018-08-09T14:24:07.639Z,6.87
2018-08-09T14:26:37.507Z,7.80
2018-08-09T14:29:08.867Z,7.40
2018-08-09T14:31:39.355Z,8.23
2018-08-09T14:34:10.255Z,6.87
2018-08-09T14:36:40.180Z,7.30
2018-08-09T14:39:11.681Z,6.40
2018-08-09T14:41:41.788Z,6.90
2018-08-09T14:44:16.829Z,7.00
2018-08-09T14:46:46.791Z,6.50
2018-08-09T14:49:16.739Z,6.80
2018-08-09T14:51:46.714Z,7.00
2018-08-09T14:54:39.701Z,6.07
2018-08-09T14:57:10.757Z,5.80
2018-08-09T14:59:41.426Z,5.77
2018-08-09T15:02:12.629Z,6.20
2018-08-09T15:04:42.722Z,5.10
2018-08-09T15:07:12.553Z,5.93
2018-08-09T15:09:42.834Z,5.57
2018-08-09T15:12:12.686Z,5.30
2018-08-09T15:14:42.564Z,4.97
2018-08-09T15:17:12.603Z,4.77
2018-08-09T15:19:42.515Z,4.30
2018-08-09T15:22:13.249Z,5.53
2018-08-09T15:24:43.169Z,4.90
2018-08-09T15:27:15.533Z,4.67
2018-08-09T15:29:45.787Z,4.27
2018-08-09T15:32:22.383Z,4.53
2018-08-09T15:34:54.484Z,5.40
2018-08-09T15:37:24.566Z,4.67
2018-08-09T15:39:54.538Z,4.50
2018-08-09T15:42:24.423Z,4.73
2018-08-09T15:44:56.332Z,4.23
2018-08-09T15:47:26.858Z,4.43
2018-08-09T15:49:56.610Z,5.70
2018-08-09T15:52:26.772Z,5.63
2018-08-09T15:54:56.892Z,4.67
2018-08-09T15:57:26.770Z,4.30
2018-08-09T15:59:56.994Z,5.03
2018-08-09T16:02:26.970Z,4.40
2018-08-09T16:04:57.152Z,4.57
2018-08-09T16:07:27.069Z,4.70
2018-08-09T16:09:57.116Z,4.50
2018-08-09T16:12:26.995Z,4.30
2018-08-09T16:14:56.847Z,4.83
2018-08-09T16:17:28.761Z,4.20
2018-08-09T16:19:58.515Z,5.13
2018-08-09T16:22:28.617Z,4.40
2018-08-09T16:24:58.469Z,4.60
2018-08-09T16:27:28.415Z,4.17
2018-08-09T16:33:08.113Z,4.43
2018-08-09T16:35:37.910Z,4.10
2018-08-09T16:38:07.814Z,4.30
2018-08-09T16:40:37.651Z,4.80
2018-08-09T16:43:08.631Z,4.70
2018-08-09T16:45:38.413Z,4.00
2018-08-09T16:48:08.509Z,3.80
2018-08-09T16:50:50.699Z,4.40
2018-08-09T16:53:20.650Z,4.40
2018-08-09T16:55:50.437Z,3.60
2018-08-09T16:58:20.615Z,4.40
2018-08-09T17:00:51.087Z,3.93
2018-08-09T17:03:26.798Z,4.00
2018-08-09T17:05:56.608Z,3.40
2018-08-09T17:11:26.849Z,3.80
2018-08-09T17:13:56.789Z,3.93
2018-08-09T17:16:26.698Z,4.30
2018-08-09T17:18:56.509Z,3.73
2018-08-09T17:21:26.383Z,4.00
2018-08-09T17:24:02.298Z,3.80
2018-08-09T17:26:32.394Z,7.93
2018-08-09T17:29:02.684Z,4.20
2018-08-09T17:35:31.642Z,3.73
2018-08-09T17:38:26.561Z,3.77
2018-08-09T17:40:57.915Z,4.03
2018-08-09T17:43:28.419Z,3.30
2018-08-09T17:46:32.271Z,3.70
2018-08-09T17:49:14.315Z,3.57
2018-08-09T17:51:44.499Z,3.70
2018-08-09T17:54:15.428Z,3.87
2018-08-09T17:56:45.850Z,3.87
2018-08-09T17:59:16.512Z,4.13
2018-08-09T18:01:46.387Z,4.03
2018-08-09T18:04:16.395Z,3.87
2018-08-09T18:09:46.134Z,3.83
2018-08-09T18:12:16.170Z,4.00
2018-08-09T18:15:14.241Z,3.60
2018-08-09T18:17:45.187Z,3.40
2018-08-09T18:20:17.223Z,3.80
2018-08-09T18:22:47.161Z,4.03
2018-08-09T18:25:17.172Z,5.10
2018-08-09T18:27:46.989Z,4.57
2018-08-09T18:30:18.517Z,3.20
2018-08-09T18:32:48.541Z,3.00
2018-08-09T18:36:26.840Z,2.97
2018-08-09T18:38:56.691Z,3.37
2018-08-09T18:44:49.025Z,3.50
2018-08-09T18:47:18.980Z,3.30
2018-08-09T18:49:49.302Z,3.10
2018-08-09T18:52:19.276Z,3.33
2018-08-09T18:54:49.870Z,3.23
2018-08-09T18:57:20.360Z,3.50
2018-08-09T18:59:50.415Z,3.80
2018-08-09T19:02:20.989Z,3.67
2018-08-09T19:04:51.264Z,3.63
2018-08-09T19:07:21.773Z,3.67
2018-08-09T19:09:51.666Z,3.93
2018-08-09T19:12:21.701Z,4.20
2018-08-09T19:14:51.442Z,3.40
2018-08-09T19:31:45.617Z,3.10
2018-08-09T19:34:15.558Z,3.43
2018-08-09T19:36:45.502Z,2.57
2018-08-09T19:39:16.093Z,2.80
2018-08-09T19:41:46.046Z,2.70
2018-08-09T19:44:22.226Z,3.10
2018-08-09T19:46:52.126Z,3.30
2018-08-09T19:49:22.146Z,3.00
2018-08-09T19:51:51.990Z,2.30
2018-08-09T19:54:21.936Z,3.10
2018-08-09T19:56:52.166Z,2.37
2018-08-09T19:59:22.002Z,2.67
2018-08-09T20:01:51.930Z,2.57
2018-08-09T20:04:21.861Z,2.73
2018-08-09T20:06:51.769Z,2.60
2018-08-09T20:09:21.545Z,2.40
2018-08-09T20:11:51.327Z,3.57
2018-08-09T20:14:21.770Z,2.97
2018-08-09T20:16:51.778Z,2.30
2018-08-09T20:19:21.666Z,2.30
2018-08-09T20:21:51.429Z,2.37
2018-08-09T20:24:24.676Z,2.40
2018-08-09T20:26:54.679Z,2.40
2018-08-09T20:29:24.416Z,2.93
2018-08-09T20:31:54.206Z,2.40
2018-08-09T20:34:24.306Z,3.10
2018-08-09T20:36:54.076Z,2.97
2018-08-09T20:39:23.887Z,3.57
2018-08-09T20:41:53.516Z,3.67
2018-08-09T20:44:23.218Z,2.80
2018-08-09T20:46:55.051Z,3.13
2018-08-09T20:49:25.044Z,3.20
2018-08-09T20:51:54.829Z,2.93
2018-08-09T20:54:25.579Z,3.20
2018-08-09T20:56:55.378Z,3.50
2018-08-09T20:59:25.102Z,3.30
2018-08-09T21:01:54.900Z,3.00
2018-08-09T21:04:24.623Z,2.63
2018-08-09T21:06:54.314Z,2.40
2018-08-09T21:09:27.847Z,2.70
2018-08-09T21:11:58.024Z,2.13
2018-08-09T21:14:27.978Z,2.43
2018-08-09T21:16:57.621Z,2.40
2018-08-09T21:19:27.259Z,2.47
2018-08-09T21:21:58.213Z,2.40
2018-08-09T21:24:28.423Z,2.33
2018-08-09T21:26:58.294Z,2.27
2018-08-09T21:29:30.724Z,1.83
2018-08-09T21:32:00.602Z,2.10
2018-08-09T21:34:30.266Z,1.80
2018-08-09T21:37:01.173Z,2.30
2018-08-09T21:39:31.012Z,2.23
2018-08-09T21:42:01.274Z,2.03
2018-08-09T21:44:31.043Z,2.20
2018-08-09T21:47:00.758Z,2.17
2018-08-09T21:49:32.126Z,2.17
2018-08-09T21:52:01.846Z,1.77
2018-08-09T21:54:31.717Z,1.73
2018-08-09T21:57:03.716Z,1.70
2018-08-09T21:59:33.708Z,1.40
2018-08-09T22:02:04.897Z,2.10
2018-08-09T22:04:38.612Z,1.50
2018-08-09T22:07:13.700Z,1.70
2018-08-09T22:09:50.985Z,1.70
2018-08-09T22:12:25.941Z,1.33
2018-08-09T22:15:08.275Z,1.70
2018-08-09T22:17:43.165Z,1.50
2018-08-09T22:20:17.903Z,1.50
2018-08-09T22:22:48.039Z,1.50
2018-08-09T22:25:17.803Z,1.53
2018-08-09T22:27:47.508Z,1.90
2018-08-09T22:30:26.634Z,1.73
2018-08-09T22:32:56.481Z,1.53
2018-08-09T22:35:26.701Z,1.60
2018-08-09T22:37:56.442Z,1.30
2018-08-09T22:40:26.206Z,1.40
2018-08-09T22:43:10.512Z,0.90
2018-08-09T22:45:46.431Z,0.90
2018-08-09T22:48:16.225Z,1.00
2018-08-09T22:51:09.879Z,0.90
2018-08-09T23:07:31.447Z,0.97
2018-08-09T23:10:01.541Z,0.80
2018-08-09T23:13:19.060Z,0.80
2018-08-09T23:15:48.806Z,0.50
2018-08-09T23:21:17.727Z,0.50
2018-08-09T23:24:05.381Z,0.70
2018-08-09T23:26:35.116Z,0.70
2018-08-09T23:29:04.946Z,0.60
2018-08-09T23:31:34.877Z,0.57
2018-08-09T23:34:04.590Z,0.60
2018-08-09T23:36:34.263Z,0.50
2018-08-09T23:39:04.679Z,0.50
2018-08-09T23:41:34.330Z,0.87
2018-08-09T23:44:04.035Z,1.00
2018-08-09T23:47:01.186Z,1.00
2018-08-09T23:49:30.873Z,0.90
2018-08-09T23:52:03.717Z,0.90
2018-08-09T23:54:33.374Z,1.30
2018-08-09T23:57:03.427Z,1.37
